createdAt,value
2023-01-26T00:00:55.037Z,102331.43
2023-01-26T00:01:58.716Z,102323.65
2023-01-26T00:03:02.151Z,102324.41
2023-01-26T00:04:05.483Z,102319.42
2023-01-26T00:05:08.823Z,102316.23
2023-01-26T00:06:14.692Z,102316.73
2023-01-26T00:07:17.849Z,102315.59
2023-01-26T00:08:20.796Z,102315.97
2023-01-26T00:09:23.909Z,102317.50
2023-01-26T00:10:27.657Z,102316.23
2023-01-26T00:11:30.898Z,102316.36
2023-01-26T00:12:33.876Z,102316.38
2023-01-26T00:13:37.977Z,102317.23
2023-01-26T00:14:50.991Z,102317.19
2023-01-26T00:15:54.297Z,102318.83
2023-01-26T00:16:58.026Z,102318.34
2023-01-26T00:18:01.822Z,102320.01
2023-01-26T00:19:05.251Z,102324.11
2023-01-26T00:20:09.959Z,102322.71
2023-01-26T00:21:18.811Z,102319.06
2023-01-26T00:22:23.187Z,102320.10
2023-01-26T00:23:29.275Z,102320.61
2023-01-26T00:24:34.586Z,102318.82
2023-01-26T00:25:41.032Z,102316.69
2023-01-26T00:26:44.172Z,102311.60
2023-01-26T00:27:47.526Z,102312.74
2023-01-26T00:28:52.197Z,102313.99
2023-01-26T00:29:55.355Z,102311.74
2023-01-26T00:31:06.946Z,102309.56
2023-01-26T00:32:10.183Z,102309.73
2023-01-26T00:33:13.615Z,102305.38
2023-01-26T00:34:16.638Z,102309.05
2023-01-26T00:35:19.980Z,102307.17
2023-01-26T00:36:23.677Z,102302.42
2023-01-26T00:37:26.791Z,102305.91
2023-01-26T00:38:30.220Z,102304.85
2023-01-26T00:39:33.145Z,102306.45
2023-01-26T00:40:39.280Z,102311.01
2023-01-26T00:42:01.762Z,102308.50
2023-01-26T00:43:07.597Z,102312.30
2023-01-26T00:44:11.669Z,102311.65
2023-01-26T00:45:17.878Z,102309.52
2023-01-26T00:46:21.471Z,102311.05
2023-01-26T00:47:25.282Z,102307.23
2023-01-26T00:48:29.122Z,102305.63
2023-01-26T00:49:32.603Z,102298.32
2023-01-26T00:50:35.956Z,102296.23
2023-01-26T00:51:41.408Z,102289.77
2023-01-26T00:52:44.543Z,102290.46
2023-01-26T00:53:47.838Z,102286.56
2023-01-26T00:54:51.032Z,102284.81
2023-01-26T00:55:56.068Z,102281.98
2023-01-26T00:57:00.020Z,102278.77
2023-01-26T00:58:06.377Z,102281.23
2023-01-26T00:59:11.694Z,102278.07
2023-01-26T01:00:16.884Z,102278.36
2023-01-26T01:01:20.761Z,102279.84
2023-01-26T01:02:23.788Z,102277.34
2023-01-26T01:03:27.200Z,102277.52
2023-01-26T01:04:31.719Z,102273.53
2023-01-26T01:05:37.034Z,102271.69
2023-01-26T01:06:40.195Z,102271.30
2023-01-26T01:07:43.175Z,102268.27
2023-01-26T01:08:46.096Z,102268.67
2023-01-26T01:09:50.269Z,102267.25
2023-01-26T01:11:08.278Z,102260.09
2023-01-26T01:12:11.428Z,102258.84
2023-01-26T01:13:15.767Z,102259.20
2023-01-26T01:14:19.046Z,102260.34
2023-01-26T01:15:22.354Z,102257.38
2023-01-26T01:16:25.931Z,102253.64
2023-01-26T01:17:29.764Z,102254.85
2023-01-26T01:18:34.007Z,102254.67
2023-01-26T01:19:38.099Z,102257.14
2023-01-26T01:20:41.543Z,102255.79
2023-01-26T01:21:44.920Z,102258.29
2023-01-26T01:22:48.131Z,102258.58
2023-01-26T01:23:51.286Z,102255.60
2023-01-26T01:24:54.524Z,102256.50
2023-01-26T01:25:58.946Z,102256.91
2023-01-26T01:27:15.016Z,102257.83
2023-01-26T01:28:18.263Z,102261.34
2023-01-26T01:29:21.437Z,102260.81
2023-01-26T01:30:24.479Z,102260.49
2023-01-26T01:31:29.531Z,102258.21
2023-01-26T01:32:35.183Z,102255.41
2023-01-26T01:33:38.973Z,102259.11
2023-01-26T01:34:42.025Z,102260.98
2023-01-26T01:35:44.974Z,102258.23
2023-01-26T01:36:50.200Z,102260.47
2023-01-26T01:37:53.149Z,102256.36
2023-01-26T01:38:56.264Z,102256.67
2023-01-26T01:40:04.719Z,102255.39
2023-01-26T01:41:08.525Z,102251.16
2023-01-26T01:42:12.077Z,102254.05
2023-01-26T01:43:17.933Z,102253.82
2023-01-26T01:44:23.507Z,102253.19
2023-01-26T01:45:40.406Z,102253.75
2023-01-26T01:46:53.202Z,102251.90
2023-01-26T01:47:59.896Z,102249.95
2023-01-26T01:49:17.640Z,102249.52
2023-01-26T01:50:21.293Z,102247.37
2023-01-26T01:51:45.296Z,102245.04
2023-01-26T01:52:53.487Z,102241.78
2023-01-26T01:54:02.274Z,102239.95
2023-01-26T01:55:12.234Z,102239.75
2023-01-26T01:56:31.552Z,102237.16
2023-01-26T01:57:51.946Z,102234.80
2023-01-26T01:58:57.642Z,102233.95
2023-01-26T02:00:08.884Z,102230.45
2023-01-26T02:01:18.317Z,102228.48
2023-01-26T02:02:21.650Z,102229.30
2023-01-26T02:03:27.033Z,102227.33
2023-01-26T02:04:30.424Z,102225.85
2023-01-26T02:05:45.422Z,102221.93
2023-01-26T02:06:53.986Z,102219.96
2023-01-26T02:07:58.398Z,102222.88
2023-01-26T02:09:03.356Z,102217.84
2023-01-26T02:10:19.288Z,102217.34
2023-01-26T02:11:46.187Z,102216.15
2023-01-26T02:12:55.560Z,102213.10
2023-01-26T02:14:02.400Z,102213.36
2023-01-26T02:15:07.960Z,102213.86
2023-01-26T02:16:11.769Z,102214.82
2023-01-26T02:17:15.381Z,102211.42
2023-01-26T02:18:19.889Z,102210.34
2023-01-26T02:19:47.116Z,102214.20
2023-01-26T02:20:53.317Z,102210.23
2023-01-26T02:22:02.756Z,102210.88
2023-01-26T02:23:26.468Z,102212.78
2023-01-26T02:24:35.220Z,102213.33
2023-01-26T02:26:03.973Z,102212.86
2023-01-26T02:27:07.780Z,102209.27
2023-01-26T02:28:11.073Z,102208.12
2023-01-26T02:29:14.747Z,102205.70
2023-01-26T02:31:50.169Z,102204.95
2023-01-26T02:32:54.103Z,102206.37
2023-01-26T02:33:57.304Z,102205.88
2023-01-26T02:35:00.638Z,102202.15
2023-01-26T02:36:05.065Z,102200.73
2023-01-26T02:37:14.911Z,102197.50
2023-01-26T02:38:21.893Z,102194.20
2023-01-26T02:40:07.722Z,102193.48
2023-01-26T02:41:35.970Z,102185.20
2023-01-26T02:42:39.117Z,102180.78
2023-01-26T02:43:42.311Z,102180.97
2023-01-26T02:44:45.377Z,102179.27
2023-01-26T02:45:48.391Z,102184.02
2023-01-26T02:46:51.302Z,102179.69
2023-01-26T02:47:54.475Z,102185.65
2023-01-26T02:49:16.481Z,102180.83
2023-01-26T02:50:19.565Z,102180.09
2023-01-26T02:51:22.870Z,102178.55
2023-01-26T02:52:28.738Z,102179.10
2023-01-26T02:53:37.387Z,102175.60
2023-01-26T02:54:59.764Z,102176.67
2023-01-26T02:56:02.869Z,102173.48
2023-01-26T02:57:06.351Z,102173.11
2023-01-26T02:58:09.361Z,102169.23
2023-01-26T02:59:12.405Z,102172.27
2023-01-26T03:00:20.268Z,102175.11
2023-01-26T03:01:24.393Z,102178.21
2023-01-26T03:02:27.448Z,102178.19
2023-01-26T03:03:42.023Z,102180.10
2023-01-26T03:04:45.225Z,102177.46
2023-01-26T03:05:50.645Z,102175.34
2023-01-26T03:06:53.933Z,102172.79
2023-01-26T03:07:57.010Z,102173.08
2023-01-26T03:09:03.547Z,102176.50
2023-01-26T03:10:07.320Z,102176.39
2023-01-26T03:11:10.651Z,102176.52
2023-01-26T03:12:13.710Z,102177.86
2023-01-26T03:13:17.069Z,102178.52
2023-01-26T03:14:20.237Z,102183.14
2023-01-26T03:15:42.700Z,102183.83
2023-01-26T03:16:46.151Z,102186.39
2023-01-26T03:17:49.151Z,102188.55
2023-01-26T03:19:05.582Z,102187.56
2023-01-26T03:20:28.826Z,102183.35
2023-01-26T03:21:50.415Z,102181.84
2023-01-26T03:23:12.484Z,102181.25
2023-01-26T03:24:34.682Z,102179.61
2023-01-26T03:25:59.692Z,102175.80
2023-01-26T03:27:23.209Z,102177.46
2023-01-26T03:28:27.261Z,102177.44
2023-01-26T03:29:30.819Z,102176.77
2023-01-26T03:30:35.314Z,102171.58
2023-01-26T03:31:40.766Z,102172.61
2023-01-26T03:32:44.521Z,102177.23
2023-01-26T03:33:50.471Z,102175.59
2023-01-26T03:34:53.837Z,102176.20
2023-01-26T03:35:56.809Z,102176.48
2023-01-26T03:37:00.987Z,102176.77
2023-01-26T03:38:10.543Z,102172.52
2023-01-26T03:39:49.473Z,102175.35
2023-01-26T03:41:16.850Z,102173.55
2023-01-26T03:42:38.668Z,102169.69
2023-01-26T03:44:00.541Z,102169.68
2023-01-26T03:45:23.985Z,102169.73
2023-01-26T03:46:45.966Z,102169.00
2023-01-26T03:48:07.730Z,102165.31
2023-01-26T03:49:29.329Z,102164.67
2023-01-26T03:50:51.169Z,102162.92
2023-01-26T03:52:12.598Z,102164.83
2023-01-26T03:53:36.338Z,102162.63
2023-01-26T03:54:59.586Z,102160.39
2023-01-26T03:56:22.161Z,102161.03
2023-01-26T03:57:29.625Z,102160.10
2023-01-26T03:58:35.264Z,102162.62
2023-01-26T03:59:38.462Z,102164.60
2023-01-26T04:00:44.328Z,102165.70
2023-01-26T04:02:06.920Z,102165.52
2023-01-26T04:03:30.204Z,102159.43
2023-01-26T04:04:52.358Z,102156.92
2023-01-26T04:06:18.338Z,102151.26
2023-01-26T04:07:43.344Z,102146.39
2023-01-26T04:08:50.153Z,102147.63
2023-01-26T04:09:53.917Z,102148.85
2023-01-26T04:10:57.864Z,102149.20
2023-01-26T04:12:01.774Z,102149.44
2023-01-26T04:13:25.210Z,102151.27
2023-01-26T04:14:52.365Z,102148.36
2023-01-26T04:16:18.899Z,102146.66
2023-01-26T04:17:42.460Z,102144.31
2023-01-26T04:19:07.983Z,102144.78
2023-01-26T04:20:30.075Z,102144.84
2023-01-26T04:21:34.209Z,102147.44
2023-01-26T04:22:45.361Z,102145.27
2023-01-26T04:23:56.495Z,102145.45
2023-01-26T04:25:00.410Z,102145.36
2023-01-26T04:26:03.863Z,102145.66
2023-01-26T04:27:07.292Z,102145.26
2023-01-26T04:28:14.762Z,102144.23
2023-01-26T04:29:19.303Z,102139.79
2023-01-26T04:30:23.259Z,102139.81
2023-01-26T04:31:27.354Z,102137.14
2023-01-26T04:32:30.978Z,102133.73
2023-01-26T04:33:34.282Z,102135.52
2023-01-26T04:34:37.647Z,102132.79
2023-01-26T04:35:47.902Z,102133.61
2023-01-26T04:36:54.088Z,102132.45
2023-01-26T04:38:16.977Z,102135.52
2023-01-26T04:39:20.388Z,102130.63
2023-01-26T04:40:28.778Z,102129.77
2023-01-26T04:41:32.634Z,102129.30
2023-01-26T04:42:40.354Z,102132.86
2023-01-26T04:43:44.274Z,102132.25
2023-01-26T04:44:49.123Z,102135.70
2023-01-26T04:46:01.277Z,102134.74
2023-01-26T04:47:05.392Z,102134.77
2023-01-26T04:48:09.497Z,102137.41
2023-01-26T04:49:12.839Z,102138.27
2023-01-26T04:50:16.560Z,102137.63
2023-01-26T04:51:22.806Z,102136.33
2023-01-26T04:52:25.940Z,102138.13
2023-01-26T04:53:29.082Z,102133.09
2023-01-26T04:54:32.010Z,102138.52
2023-01-26T04:55:35.523Z,102138.96
2023-01-26T04:56:38.702Z,102140.44
2023-01-26T04:57:41.663Z,102140.95
2023-01-26T04:58:46.254Z,102141.05
2023-01-26T04:59:49.512Z,102141.73
2023-01-26T05:00:56.043Z,102143.73
2023-01-26T05:01:59.194Z,102144.59
2023-01-26T05:03:02.446Z,102139.16
2023-01-26T05:04:06.880Z,102138.50
2023-01-26T05:05:10.959Z,102135.94
2023-01-26T05:06:14.895Z,102134.89
2023-01-26T05:07:20.326Z,102138.80
2023-01-26T05:08:24.184Z,102136.52
2023-01-26T05:09:29.723Z,102131.98
2023-01-26T05:11:03.168Z,102133.63
2023-01-26T05:12:37.465Z,102137.52
2023-01-26T05:14:09.584Z,102133.56
2023-01-26T05:15:35.629Z,102131.40
2023-01-26T05:17:04.446Z,102130.29
2023-01-26T05:18:27.956Z,102130.27
2023-01-26T05:19:37.560Z,102125.56
2023-01-26T05:21:10.905Z,102125.60
2023-01-26T05:22:17.795Z,102128.77
2023-01-26T05:23:41.120Z,102129.89
2023-01-26T05:25:10.763Z,102132.48
2023-01-26T05:26:22.578Z,102132.76
2023-01-26T05:27:32.343Z,102131.73
2023-01-26T05:28:36.748Z,102136.91
2023-01-26T05:29:40.394Z,102141.14
2023-01-26T05:30:43.450Z,102140.73
2023-01-26T05:31:47.930Z,102140.00
2023-01-26T05:32:50.924Z,102140.39
2023-01-26T05:33:53.865Z,102140.16
2023-01-26T05:34:59.679Z,102138.73
2023-01-26T05:36:07.510Z,102138.73
2023-01-26T05:37:13.085Z,102140.73
2023-01-26T05:38:19.823Z,102139.73
2023-01-26T05:39:23.769Z,102143.68
2023-01-26T05:40:27.667Z,102143.65
2023-01-26T05:41:31.329Z,102147.01
2023-01-26T05:42:55.565Z,102143.08
2023-01-26T05:44:27.463Z,102143.83
2023-01-26T05:45:36.384Z,102146.70
2023-01-26T05:46:39.330Z,102145.64
2023-01-26T05:47:44.634Z,102145.29
2023-01-26T05:48:47.547Z,102144.34
2023-01-26T05:49:50.984Z,102145.38
2023-01-26T05:50:59.506Z,102143.68
2023-01-26T05:52:02.563Z,102147.44
2023-01-26T05:53:06.827Z,102148.23
2023-01-26T05:54:11.997Z,102149.07
2023-01-26T05:55:16.129Z,102147.54
2023-01-26T05:56:19.615Z,102146.41
2023-01-26T05:57:27.656Z,102149.92
2023-01-26T05:58:34.846Z,102151.04
2023-01-26T05:59:37.985Z,102153.98
2023-01-26T06:00:42.204Z,102152.83
2023-01-26T06:01:49.078Z,102153.55
2023-01-26T06:02:52.871Z,102153.87
2023-01-26T06:03:56.213Z,102151.56
2023-01-26T06:04:59.896Z,102148.64
2023-01-26T06:06:02.869Z,102145.81
2023-01-26T06:07:15.349Z,102144.19
2023-01-26T06:08:42.224Z,102143.79
2023-01-26T06:10:09.107Z,102143.93
2023-01-26T06:11:32.874Z,102138.20
2023-01-26T06:12:55.736Z,102140.98
2023-01-26T06:14:21.216Z,102142.27
2023-01-26T06:15:24.424Z,102142.76
2023-01-26T06:16:27.893Z,102146.05
2023-01-26T06:17:36.246Z,102144.65
2023-01-26T06:18:41.515Z,102148.48
2023-01-26T06:19:44.830Z,102152.59
2023-01-26T06:20:48.436Z,102151.77
2023-01-26T06:21:53.506Z,102152.29
2023-01-26T06:23:01.531Z,102156.70
2023-01-26T06:24:07.561Z,102157.59
2023-01-26T06:25:11.057Z,102154.44
2023-01-26T06:26:15.281Z,102156.06
2023-01-26T06:27:20.688Z,102156.44
2023-01-26T06:28:28.625Z,102156.33
2023-01-26T06:29:32.475Z,102151.46
2023-01-26T06:30:35.686Z,102152.08
2023-01-26T06:31:42.992Z,102149.11
2023-01-26T06:32:47.867Z,102151.36
2023-01-26T06:33:51.268Z,102148.71
2023-01-26T06:34:54.882Z,102150.47
2023-01-26T06:36:14.037Z,102150.83
2023-01-26T06:37:17.859Z,102148.71
2023-01-26T06:38:20.842Z,102149.84
2023-01-26T06:39:24.652Z,102148.96
2023-01-26T06:40:27.812Z,102146.46
2023-01-26T06:41:30.886Z,102144.89
2023-01-26T06:42:34.044Z,102145.95
2023-01-26T06:43:37.665Z,102144.08
2023-01-26T06:44:41.445Z,102148.55
2023-01-26T06:45:44.825Z,102147.93
2023-01-26T06:46:47.845Z,102150.54
2023-01-26T06:47:51.382Z,102149.93
2023-01-26T06:48:55.639Z,102154.15
2023-01-26T06:49:58.945Z,102151.98
2023-01-26T06:51:20.331Z,102156.22
2023-01-26T06:52:32.118Z,102158.81
2023-01-26T06:53:43.970Z,102158.59
2023-01-26T06:55:03.443Z,102158.02
2023-01-26T06:56:35.983Z,102152.91
2023-01-26T06:58:05.079Z,102148.95
2023-01-26T06:59:26.510Z,102145.19
2023-01-26T07:01:11.214Z,102142.82
2023-01-26T07:02:21.937Z,102138.03
2023-01-26T07:03:25.024Z,102138.73
2023-01-26T07:04:28.135Z,102140.17
2023-01-26T07:05:31.358Z,102135.57
2023-01-26T07:06:34.235Z,102134.27
2023-01-26T07:07:37.308Z,102134.98
2023-01-26T07:08:40.847Z,102129.95
2023-01-26T07:09:43.857Z,102130.65
2023-01-26T07:10:46.790Z,102130.20
2023-01-26T07:11:49.685Z,102122.65
2023-01-26T07:12:52.878Z,102122.81
2023-01-26T07:13:57.153Z,102123.14
2023-01-26T07:15:00.382Z,102123.12
2023-01-26T07:16:13.240Z,102121.80
2023-01-26T07:17:16.228Z,102122.62
2023-01-26T07:18:19.413Z,102123.58
2023-01-26T07:19:22.463Z,102124.81
2023-01-26T07:20:25.803Z,102123.50
2023-01-26T07:21:28.966Z,102121.39
2023-01-26T07:22:32.085Z,102125.62
2023-01-26T07:23:35.335Z,102128.44
2023-01-26T07:24:38.345Z,102126.05
2023-01-26T07:25:44.360Z,102123.60
2023-01-26T07:26:47.715Z,102126.42
2023-01-26T07:27:56.376Z,102124.47
2023-01-26T07:28:59.722Z,102124.81
2023-01-26T07:30:03.157Z,102127.27
2023-01-26T07:31:07.481Z,102127.50
2023-01-26T07:32:10.604Z,102125.04
2023-01-26T07:33:13.621Z,102126.07
2023-01-26T07:34:16.671Z,102126.02
2023-01-26T07:35:19.551Z,102120.99
2023-01-26T07:36:22.394Z,102119.47
2023-01-26T07:37:29.382Z,102119.72
2023-01-26T07:38:33.337Z,102119.00
2023-01-26T07:39:36.520Z,102117.04
2023-01-26T07:40:39.451Z,102116.39
2023-01-26T07:41:42.395Z,102117.73
2023-01-26T07:43:04.102Z,102114.55
2023-01-26T07:44:23.073Z,102114.91
2023-01-26T07:45:27.133Z,102116.02
2023-01-26T07:46:30.262Z,102116.83
2023-01-26T07:47:33.408Z,102116.05
2023-01-26T07:48:36.775Z,102116.49
2023-01-26T07:49:39.740Z,102113.34
2023-01-26T07:50:45.303Z,102114.59
2023-01-26T07:51:48.321Z,102112.67
2023-01-26T07:52:52.772Z,102114.04
2023-01-26T07:53:55.741Z,102114.48
2023-01-26T07:54:58.667Z,102114.41
2023-01-26T07:56:13.662Z,102115.58
2023-01-26T07:57:16.633Z,102113.38
2023-01-26T07:58:19.814Z,102110.65
2023-01-26T07:59:23.572Z,102105.41
2023-01-26T08:00:26.725Z,102104.74
2023-01-26T08:01:30.543Z,102106.27
2023-01-26T08:02:33.630Z,102106.61
2023-01-26T08:03:37.043Z,102103.60
2023-01-26T08:04:40.017Z,102104.06
2023-01-26T08:05:43.558Z,102106.10
2023-01-26T08:06:46.834Z,102108.74
2023-01-26T08:07:49.941Z,102101.23
2023-01-26T08:08:55.747Z,102104.30
2023-01-26T08:09:59.226Z,102104.21
2023-01-26T08:11:02.537Z,102102.61
2023-01-26T08:12:05.850Z,102101.56
2023-01-26T08:13:08.789Z,102102.95
2023-01-26T08:14:11.968Z,102099.48
2023-01-26T08:15:14.969Z,102102.14
2023-01-26T08:16:18.502Z,102101.50
2023-01-26T08:17:21.631Z,102096.67
2023-01-26T08:18:24.667Z,102096.52
2023-01-26T08:19:27.595Z,102095.52
2023-01-26T08:20:31.238Z,102089.48
2023-01-26T08:21:34.253Z,102089.98
2023-01-26T08:22:37.472Z,102083.29
2023-01-26T08:23:40.528Z,102085.51
2023-01-26T08:24:43.551Z,102080.75
2023-01-26T08:25:47.346Z,102081.07
2023-01-26T08:26:50.496Z,102074.91
2023-01-26T08:27:54.912Z,102079.19
2023-01-26T08:28:57.949Z,102080.18
2023-01-26T08:30:00.905Z,102081.27
2023-01-26T08:31:11.544Z,102082.92
2023-01-26T08:32:14.773Z,102080.96
2023-01-26T08:33:17.927Z,102084.97
2023-01-26T08:34:22.662Z,102086.01
2023-01-26T08:35:25.629Z,102086.41
2023-01-26T08:36:28.785Z,102086.93
2023-01-26T08:37:31.706Z,102087.59
2023-01-26T08:38:35.089Z,102087.17
2023-01-26T08:39:38.016Z,102084.45
2023-01-26T08:40:41.022Z,102088.80
2023-01-26T08:41:43.927Z,102090.70
2023-01-26T08:42:46.852Z,102089.98
2023-01-26T08:43:51.267Z,102089.59
2023-01-26T08:44:54.193Z,102089.16
2023-01-26T08:45:57.956Z,102088.70
2023-01-26T08:47:01.029Z,102086.45
2023-01-26T08:48:04.909Z,102089.39
2023-01-26T08:49:09.335Z,102086.39
2023-01-26T08:50:12.554Z,102087.45
2023-01-26T08:51:15.703Z,102087.58
2023-01-26T08:52:18.670Z,102085.67
2023-01-26T08:53:22.315Z,102084.77
2023-01-26T08:54:25.422Z,102087.51
2023-01-26T08:55:29.721Z,102088.61
2023-01-26T08:56:32.690Z,102091.44
2023-01-26T08:57:35.586Z,102092.38
2023-01-26T08:58:38.962Z,102090.91
2023-01-26T08:59:42.338Z,102086.40
2023-01-26T09:00:45.399Z,102085.64
2023-01-26T09:01:51.151Z,102084.32
2023-01-26T09:03:03.076Z,102078.70
2023-01-26T09:04:06.215Z,102079.38
2023-01-26T09:05:10.109Z,102079.27
2023-01-26T09:06:14.841Z,102075.70
2023-01-26T09:07:17.792Z,102072.73
2023-01-26T09:08:20.675Z,102068.20
2023-01-26T09:09:23.648Z,102072.02
2023-01-26T09:10:27.070Z,102073.27
2023-01-26T09:11:30.002Z,102075.61
2023-01-26T09:12:32.888Z,102080.27
2023-01-26T09:13:37.271Z,102075.30
2023-01-26T09:14:41.358Z,102074.95
2023-01-26T09:15:44.603Z,102076.92
2023-01-26T09:16:47.807Z,102077.43
2023-01-26T09:17:51.225Z,102073.69
2023-01-26T09:18:54.610Z,102075.66
2023-01-26T09:19:57.541Z,102067.70
2023-01-26T09:21:05.954Z,102070.35
2023-01-26T09:22:08.856Z,102065.74
2023-01-26T09:23:12.769Z,102063.44
2023-01-26T09:24:15.738Z,102063.95
2023-01-26T09:25:18.914Z,102063.70
2023-01-26T09:26:22.193Z,102061.59
2023-01-26T09:27:25.272Z,102062.89
2023-01-26T09:28:28.765Z,102063.25
2023-01-26T09:29:31.740Z,102065.85
2023-01-26T09:30:34.888Z,102064.12
2023-01-26T09:31:38.257Z,102059.02
2023-01-26T09:32:41.251Z,102064.24
2023-01-26T09:33:45.310Z,102061.39
2023-01-26T09:34:48.445Z,102062.92
2023-01-26T09:35:51.471Z,102061.95
2023-01-26T09:36:54.531Z,102064.41
2023-01-26T09:37:57.538Z,102062.27
2023-01-26T09:39:00.536Z,102065.85
2023-01-26T09:40:03.759Z,102061.27
2023-01-26T09:41:21.733Z,102065.27
2023-01-26T09:42:44.964Z,102066.52
2023-01-26T09:43:53.108Z,102063.73
2023-01-26T09:45:14.468Z,102061.30
2023-01-26T09:46:37.920Z,102057.54
2023-01-26T09:48:07.896Z,102057.48
2023-01-26T09:49:16.891Z,102060.77
2023-01-26T09:50:33.194Z,102060.86
2023-01-26T09:51:57.629Z,102061.14
2023-01-26T09:53:07.727Z,102058.56
2023-01-26T09:54:16.073Z,102057.98
2023-01-26T09:55:22.210Z,102056.58
2023-01-26T09:56:30.716Z,102054.85
2023-01-26T09:57:46.643Z,102055.65
2023-01-26T09:59:13.607Z,102052.65
2023-01-26T10:00:48.885Z,102047.92
2023-01-26T10:02:33.450Z,102050.36
2023-01-26T10:04:27.069Z,102050.45
2023-01-26T10:05:50.422Z,102051.02
2023-01-26T10:07:14.708Z,102052.80
2023-01-26T10:08:25.023Z,102053.20
2023-01-26T10:09:33.245Z,102061.38
2023-01-26T10:10:54.045Z,102059.27
2023-01-26T10:12:01.977Z,102060.48
2023-01-26T10:13:05.256Z,102065.30
2023-01-26T10:14:31.357Z,102063.03
2023-01-26T10:15:41.588Z,102064.52
2023-01-26T10:16:51.369Z,102062.93
2023-01-26T10:17:55.223Z,102061.39
2023-01-26T10:19:12.802Z,102062.55
2023-01-26T10:20:15.749Z,102056.63
2023-01-26T10:21:22.596Z,102055.74
2023-01-26T10:22:51.418Z,102054.18
2023-01-26T10:23:55.394Z,102050.49
2023-01-26T10:25:00.607Z,102049.81
2023-01-26T10:26:15.413Z,102048.40
2023-01-26T10:27:19.073Z,102048.18
2023-01-26T10:28:29.275Z,102047.23
2023-01-26T10:29:32.187Z,102052.91
2023-01-26T10:30:35.372Z,102049.58
2023-01-26T10:31:38.513Z,102050.19
2023-01-26T10:32:44.781Z,102050.44
2023-01-26T10:33:57.840Z,102051.69
2023-01-26T10:35:00.895Z,102048.57
2023-01-26T10:36:07.439Z,102047.61
2023-01-26T10:37:28.537Z,102047.46
2023-01-26T10:38:37.830Z,102048.14
2023-01-26T10:40:09.524Z,102044.55
2023-01-26T10:41:16.975Z,102044.66
2023-01-26T10:42:28.335Z,102045.14
2023-01-26T10:43:40.425Z,102043.92
2023-01-26T10:44:43.591Z,102041.62
2023-01-26T10:45:47.755Z,102046.55
2023-01-26T10:47:04.716Z,102042.98
2023-01-26T10:48:18.617Z,102040.48
2023-01-26T10:49:22.218Z,102041.64
2023-01-26T10:50:25.804Z,102043.04
2023-01-26T10:51:34.417Z,102040.95
2023-01-26T10:52:37.570Z,102042.95
2023-01-26T10:53:40.545Z,102043.79
2023-01-26T10:54:47.511Z,102042.25
2023-01-26T10:56:01.199Z,102047.27
2023-01-26T10:57:14.281Z,102045.90
2023-01-26T10:58:42.727Z,102048.33
2023-01-26T10:59:50.902Z,102048.95
2023-01-26T11:00:57.133Z,102046.83
2023-01-26T11:02:21.869Z,102044.42
2023-01-26T11:03:28.659Z,102043.16
2023-01-26T11:04:31.709Z,102044.25
2023-01-26T11:05:34.750Z,102041.70
2023-01-26T11:06:38.218Z,102040.79
2023-01-26T11:07:47.101Z,102044.17
2023-01-26T11:08:50.356Z,102045.08
2023-01-26T11:09:54.534Z,102044.86
2023-01-26T11:10:57.632Z,102043.45
2023-01-26T11:12:03.679Z,102043.77
2023-01-26T11:13:17.624Z,102038.42
2023-01-26T11:14:21.292Z,102036.48
2023-01-26T11:15:27.503Z,102034.42
2023-01-26T11:16:30.551Z,102033.29
2023-01-26T11:17:40.794Z,102032.38
2023-01-26T11:18:56.877Z,102031.57
2023-01-26T11:20:09.757Z,102029.06
2023-01-26T11:21:18.501Z,102028.96
2023-01-26T11:22:27.637Z,102028.50
2023-01-26T11:23:38.581Z,102028.31
2023-01-26T11:25:04.028Z,102030.86
2023-01-26T11:26:26.942Z,102031.88
2023-01-26T11:27:41.178Z,102026.11
2023-01-26T11:28:47.224Z,102023.20
2023-01-26T11:30:20.832Z,102023.70
2023-01-26T11:31:23.707Z,102017.73
2023-01-26T11:32:45.430Z,102016.41
2023-01-26T11:34:06.752Z,102015.40
2023-01-26T11:35:40.660Z,102016.30
2023-01-26T11:36:59.907Z,102017.39
2023-01-26T11:38:09.697Z,102017.02
2023-01-26T11:39:28.310Z,102017.57
2023-01-26T11:40:41.474Z,102018.96
2023-01-26T11:42:02.940Z,102021.14
2023-01-26T11:43:23.959Z,102018.81
2023-01-26T11:44:48.695Z,102017.58
2023-01-26T11:46:13.878Z,102016.64
2023-01-26T11:47:25.931Z,102008.15
2023-01-26T11:48:42.732Z,102007.59
2023-01-26T11:49:57.916Z,102003.73
2023-01-26T11:51:06.892Z,102000.69
2023-01-26T11:52:24.645Z,101997.42
2023-01-26T11:54:07.133Z,101996.66
2023-01-26T11:55:25.924Z,101998.48
2023-01-26T11:57:06.573Z,102003.54
2023-01-26T11:58:31.428Z,102002.98
2023-01-26T11:59:46.512Z,102002.69
2023-01-26T12:00:56.803Z,101997.48
2023-01-26T12:02:20.265Z,101998.36
2023-01-26T12:03:46.425Z,101996.84
2023-01-26T12:04:49.562Z,101996.28
2023-01-26T12:05:57.694Z,101993.52
2023-01-26T12:07:30.439Z,101991.77
2023-01-26T12:08:45.442Z,101989.83
2023-01-26T12:09:52.319Z,101989.42
2023-01-26T12:10:58.025Z,101988.29
2023-01-26T12:12:09.299Z,101987.69
2023-01-26T12:13:24.919Z,101986.27
2023-01-26T12:14:49.298Z,101989.16
2023-01-26T12:15:56.983Z,101984.45
2023-01-26T12:17:32.794Z,101984.55
2023-01-26T12:18:58.966Z,101988.10
2023-01-26T12:20:43.484Z,101982.02
2023-01-26T12:21:47.192Z,101983.23
2023-01-26T12:23:02.851Z,101980.38
2023-01-26T12:24:26.496Z,101979.23
2023-01-26T12:25:38.431Z,101979.39
2023-01-26T12:26:48.489Z,101977.34
2023-01-26T12:28:03.031Z,101977.08
2023-01-26T12:29:22.876Z,101973.61
2023-01-26T12:30:44.103Z,101970.09
2023-01-26T12:31:55.298Z,101968.22
2023-01-26T12:32:59.092Z,101966.86
2023-01-26T12:34:02.284Z,101963.16
2023-01-26T12:35:07.871Z,101962.73
2023-01-26T12:36:19.381Z,101962.21
2023-01-26T12:37:40.920Z,101959.18
2023-01-26T12:39:23.782Z,101952.16
2023-01-26T12:40:48.116Z,101949.41
2023-01-26T12:41:53.992Z,101949.77
2023-01-26T12:43:19.197Z,101948.14
2023-01-26T12:44:34.344Z,101951.92
2023-01-26T12:45:41.987Z,101946.98
2023-01-26T12:46:51.788Z,101945.65
2023-01-26T12:47:59.251Z,101946.04
2023-01-26T12:49:08.788Z,101947.23
2023-01-26T12:50:21.468Z,101944.50
2023-01-26T12:51:36.417Z,101946.40
2023-01-26T12:52:53.113Z,101946.38
2023-01-26T12:54:08.371Z,101947.70
2023-01-26T12:55:23.388Z,101946.73
2023-01-26T12:56:39.696Z,101947.55
2023-01-26T12:57:49.220Z,101945.90
2023-01-26T12:58:54.618Z,101942.60
2023-01-26T13:00:17.660Z,101941.65
2023-01-26T13:01:23.467Z,101940.52
2023-01-26T13:02:33.436Z,101942.33
2023-01-26T13:03:42.095Z,101938.59
2023-01-26T13:04:48.713Z,101938.54
2023-01-26T13:06:02.721Z,101939.92
2023-01-26T13:07:34.426Z,101940.61
2023-01-26T13:08:37.765Z,101941.34
2023-01-26T13:10:17.872Z,101941.50
2023-01-26T13:12:00.503Z,101935.88